createdAt,value
2023-02-16T00:00:30.156Z,31.53
2023-02-16T00:04:18.704Z,33.17
2023-02-16T00:08:02.457Z,34.90
2023-02-16T00:12:02.685Z,29.40
2023-02-16T00:15:46.908Z,31.80
2023-02-16T00:19:31.785Z,30.37
2023-02-16T00:23:14.484Z,29.40
2023-02-16T00:26:57.775Z,35.70
2023-02-16T00:30:40.689Z,35.33
2023-02-16T00:34:31.079Z,32.10
2023-02-16T00:38:14.390Z,31.60
2023-02-16T00:41:59.079Z,32.27
2023-02-16T00:45:41.762Z,32.87
2023-02-16T00:49:24.512Z,29.97
2023-02-16T00:53:08.594Z,30.83
2023-02-16T00:56:51.358Z,30.27
2023-02-16T01:00:35.876Z,29.67
2023-02-16T01:04:21.678Z,25.43
2023-02-16T01:08:27.540Z,26.80
2023-02-16T01:12:18.670Z,27.30
2023-02-16T01:16:01.455Z,26.77
2023-02-16T01:19:44.241Z,27.40
2023-02-16T01:23:29.455Z,26.80
2023-02-16T01:27:14.250Z,25.27
2023-02-16T01:30:57.091Z,25.00
2023-02-16T01:34:39.866Z,27.80
2023-02-16T01:38:23.967Z,28.93
2023-02-16T01:42:33.258Z,27.67
2023-02-16T01:46:19.756Z,24.23
2023-02-16T01:50:03.601Z,29.47
2023-02-16T01:53:50.009Z,25.70
2023-02-16T01:57:39.660Z,27.20
2023-02-16T02:01:38.041Z,28.60
2023-02-16T02:05:38.397Z,30.93
2023-02-16T02:09:24.373Z,27.57
2023-02-16T02:13:12.416Z,31.83
2023-02-16T02:16:57.364Z,27.23
2023-02-16T02:21:08.232Z,33.03
2023-02-16T02:25:36.525Z,32.07
2023-02-16T02:29:45.536Z,30.37
2023-02-16T02:33:38.575Z,30.20
2023-02-16T02:37:26.223Z,26.90
2023-02-16T02:41:13.835Z,27.47
2023-02-16T02:45:03.540Z,27.93
2023-02-16T02:48:46.193Z,26.13
2023-02-16T02:52:28.830Z,23.13
2023-02-16T02:56:31.084Z,25.53
2023-02-16T03:00:38.203Z,22.83
2023-02-16T03:04:23.577Z,24.17
2023-02-16T03:08:14.035Z,20.77
2023-02-16T03:12:16.212Z,21.60
2023-02-16T03:16:03.056Z,23.50
2023-02-16T03:20:04.829Z,20.30
2023-02-16T03:24:06.231Z,18.57
2023-02-16T03:28:06.449Z,19.87
2023-02-16T03:31:52.074Z,16.23
2023-02-16T03:35:35.808Z,13.03
2023-02-16T03:39:19.235Z,13.20
2023-02-16T03:43:04.035Z,14.60
2023-02-16T03:46:49.515Z,11.33
2023-02-16T03:50:34.020Z,16.33
2023-02-16T03:54:16.761Z,10.60
2023-02-16T03:57:59.386Z,16.00
2023-02-16T04:01:42.156Z,20.47
2023-02-16T04:05:25.165Z,17.87
2023-02-16T04:09:09.280Z,14.43
2023-02-16T04:12:51.920Z,18.17
2023-02-16T04:16:34.602Z,16.27
2023-02-16T04:20:20.275Z,16.53
2023-02-16T04:24:05.663Z,11.00
2023-02-16T04:27:50.348Z,10.33
2023-02-16T04:31:33.181Z,9.73
2023-02-16T04:35:16.604Z,11.07
2023-02-16T04:38:59.256Z,11.40
2023-02-16T04:42:42.292Z,9.80
2023-02-16T04:46:26.418Z,8.50
2023-02-16T04:50:10.008Z,9.63
2023-02-16T04:53:52.709Z,9.53
2023-02-16T04:57:35.371Z,11.07
2023-02-16T05:01:23.671Z,8.57
2023-02-16T05:05:08.724Z,7.40
2023-02-16T05:08:51.390Z,9.90
2023-02-16T05:12:51.671Z,7.73
2023-02-16T05:16:34.377Z,8.67
2023-02-16T05:20:18.516Z,9.90
2023-02-16T05:24:02.320Z,6.67
2023-02-16T05:27:44.936Z,6.57
2023-02-16T05:31:28.511Z,7.63
2023-02-16T05:35:11.275Z,6.33
2023-02-16T05:38:55.396Z,7.37
2023-02-16T05:42:38.104Z,5.77
2023-02-16T05:46:21.358Z,4.57
2023-02-16T05:50:04.181Z,6.70
2023-02-16T05:53:47.197Z,7.67
2023-02-16T05:57:34.834Z,7.80
2023-02-16T06:01:18.161Z,7.83
2023-02-16T06:05:00.973Z,12.37
2023-02-16T06:08:43.653Z,7.00
2023-02-16T06:12:26.393Z,6.67
2023-02-16T06:16:10.493Z,8.97
2023-02-16T06:19:53.230Z,6.97
2023-02-16T06:23:35.887Z,8.10
2023-02-16T06:27:18.647Z,7.53
2023-02-16T06:31:01.483Z,9.30
2023-02-16T06:34:45.618Z,9.30
2023-02-16T06:38:28.312Z,8.83
2023-02-16T06:42:11.037Z,8.33
2023-02-16T06:45:53.790Z,8.10
2023-02-16T06:49:36.505Z,11.97
2023-02-16T06:53:23.745Z,8.80
2023-02-16T06:57:06.513Z,10.17
2023-02-16T07:00:49.260Z,11.50
2023-02-16T07:04:32.019Z,9.13
2023-02-16T07:08:14.665Z,9.80
2023-02-16T07:11:58.788Z,11.37
2023-02-16T07:15:41.580Z,11.87
2023-02-16T07:19:24.245Z,9.83
2023-02-16T07:23:06.989Z,11.77
2023-02-16T07:26:49.641Z,14.20
2023-02-16T07:30:33.753Z,11.93
2023-02-16T07:34:16.399Z,11.60
2023-02-16T07:37:59.096Z,17.00
2023-02-16T07:41:41.823Z,11.53
2023-02-16T07:45:24.477Z,12.37
2023-02-16T07:49:08.479Z,12.83
2023-02-16T07:52:51.234Z,13.77
2023-02-16T07:56:35.180Z,12.20
2023-02-16T08:00:18.894Z,18.67
2023-02-16T08:04:01.567Z,14.73
2023-02-16T08:07:46.823Z,15.80
2023-02-16T08:11:29.634Z,15.00
2023-02-16T08:15:12.556Z,14.30
2023-02-16T08:18:56.836Z,14.10
2023-02-16T08:22:39.547Z,13.07
2023-02-16T08:26:25.001Z,16.17
2023-02-16T08:30:12.629Z,14.87
2023-02-16T08:33:55.716Z,14.60
2023-02-16T08:37:39.347Z,16.40
2023-02-16T08:41:26.403Z,18.67
2023-02-16T08:45:09.949Z,13.67
2023-02-16T08:48:54.364Z,16.43
2023-02-16T08:52:38.601Z,13.50
2023-02-16T08:56:21.356Z,14.43
2023-02-16T09:00:25.565Z,13.90
2023-02-16T09:04:08.393Z,13.70
2023-02-16T09:07:51.700Z,13.03
2023-02-16T09:11:34.386Z,11.50
2023-02-16T09:15:18.601Z,13.10
2023-02-16T09:19:02.469Z,12.70
2023-02-16T09:22:47.206Z,12.67
2023-02-16T09:26:32.964Z,11.93
2023-02-16T09:30:16.125Z,11.83
2023-02-16T09:34:03.897Z,13.63
2023-02-16T09:37:47.020Z,13.57
2023-02-16T09:41:34.145Z,14.03
2023-02-16T09:45:18.288Z,14.20
2023-02-16T09:49:03.691Z,12.83
2023-02-16T09:52:52.510Z,13.33
2023-02-16T09:56:39.052Z,17.37
2023-02-16T10:00:27.995Z,14.00
2023-02-16T10:04:27.245Z,13.77
2023-02-16T10:08:14.412Z,14.73
2023-02-16T10:12:01.836Z,16.73
2023-02-16T10:15:45.838Z,14.73
2023-02-16T10:19:36.486Z,18.03
2023-02-16T10:23:27.908Z,18.77
2023-02-16T10:27:15.011Z,22.00
2023-02-16T10:31:05.745Z,17.60
2023-02-16T10:34:57.860Z,16.00
2023-02-16T10:38:44.635Z,18.07
2023-02-16T10:42:35.938Z,12.27
2023-02-16T10:46:27.688Z,13.57
2023-02-16T10:50:22.077Z,15.10
2023-02-16T10:54:08.833Z,16.17
2023-02-16T10:57:55.197Z,18.67
2023-02-16T11:01:40.386Z,14.83
2023-02-16T11:05:36.763Z,12.93
2023-02-16T11:09:19.444Z,15.63
2023-02-16T11:13:02.157Z,11.93
2023-02-16T11:16:45.877Z,13.47
2023-02-16T11:20:32.453Z,11.90
2023-02-16T11:24:25.538Z,17.10
2023-02-16T11:28:09.597Z,16.63
2023-02-16T11:31:52.986Z,11.77
2023-02-16T11:35:43.470Z,12.60
2023-02-16T11:39:30.764Z,12.93
2023-02-16T11:43:18.658Z,13.03
2023-02-16T11:47:04.849Z,12.47
2023-02-16T11:50:59.154Z,9.97
2023-02-16T11:54:49.502Z,10.10
2023-02-16T11:58:32.363Z,9.00
2023-02-16T12:02:36.950Z,12.07
2023-02-16T12:06:32.090Z,10.07
2023-02-16T12:10:23.452Z,12.40
2023-02-16T12:14:22.800Z,9.63
2023-02-16T12:18:32.795Z,10.47
2023-02-16T12:22:25.442Z,8.73
2023-02-16T12:26:27.955Z,13.73
2023-02-16T12:30:23.459Z,7.73
2023-02-16T12:34:17.215Z,11.47
2023-02-16T12:38:06.901Z,9.20
2023-02-16T12:41:57.863Z,9.60
2023-02-16T12:45:44.290Z,12.97
2023-02-16T12:49:29.509Z,12.87
2023-02-16T12:53:20.251Z,13.13
2023-02-16T12:57:04.924Z,10.60
2023-02-16T13:00:49.626Z,8.17
2023-02-16T13:04:43.358Z,10.47
2023-02-16T13:08:31.223Z,10.37
2023-02-16T13:12:22.045Z,8.57
2023-02-16T13:16:20.427Z,11.47
2023-02-16T13:20:17.017Z,9.63
2023-02-16T13:24:10.271Z,11.43
2023-02-16T13:28:02.851Z,9.97
2023-02-16T13:31:54.539Z,11.37
2023-02-16T13:35:55.097Z,13.07
2023-02-16T13:39:55.592Z,10.17
2023-02-16T13:43:41.989Z,10.20
2023-02-16T13:47:31.916Z,13.33
2023-02-16T13:51:17.591Z,12.07
2023-02-16T13:55:04.320Z,8.33
2023-02-16T13:58:46.959Z,8.73
2023-02-16T14:03:03.396Z,11.47
2023-02-16T14:06:46.317Z,10.97
2023-02-16T14:11:00.938Z,10.27
2023-02-16T14:14:49.650Z,7.70
2023-02-16T14:18:37.957Z,9.10
2023-02-16T14:22:23.028Z,9.70
2023-02-16T14:26:08.273Z,9.87
2023-02-16T14:29:57.925Z,8.70
2023-02-16T14:33:43.378Z,9.27
2023-02-16T14:37:36.690Z,8.37
2023-02-16T14:41:28.574Z,8.27
2023-02-16T14:45:50.789Z,8.67
2023-02-16T14:49:46.071Z,10.00
2023-02-16T14:53:59.154Z,8.30
2023-02-16T14:57:47.936Z,9.30
2023-02-16T15:01:40.558Z,6.83
2023-02-16T15:05:25.526Z,7.93
2023-02-16T15:09:17.092Z,11.87
2023-02-16T15:13:01.178Z,9.37
2023-02-16T15:16:43.892Z,7.77
2023-02-16T15:20:29.610Z,10.43
2023-02-16T15:24:26.634Z,7.93
2023-02-16T15:28:20.373Z,6.80
2023-02-16T15:32:07.634Z,8.37
2023-02-16T15:35:54.577Z,5.60
2023-02-16T15:39:49.809Z,6.00
2023-02-16T15:43:47.602Z,6.47
2023-02-16T15:47:30.298Z,6.10
2023-02-16T15:51:16.609Z,4.70
2023-02-16T15:55:01.718Z,6.30
2023-02-16T15:58:48.942Z,5.63
2023-02-16T16:02:36.689Z,7.53
2023-02-16T16:06:19.676Z,6.97
2023-02-16T16:10:05.038Z,7.23
2023-02-16T16:13:49.686Z,5.83
2023-02-16T16:17:33.809Z,8.53
2023-02-16T16:21:22.682Z,4.93
2023-02-16T16:25:29.542Z,7.87
2023-02-16T16:29:32.595Z,6.93
2023-02-16T16:33:16.539Z,5.97
2023-02-16T16:37:02.038Z,7.90
2023-02-16T16:40:51.688Z,6.90
2023-02-16T16:44:37.550Z,6.03
2023-02-16T16:48:25.619Z,8.27
2023-02-16T16:52:11.995Z,7.57
2023-02-16T16:55:54.830Z,9.37
2023-02-16T16:59:39.489Z,8.80
2023-02-16T17:03:24.958Z,7.97
2023-02-16T17:07:07.841Z,10.03
2023-02-16T17:10:50.524Z,9.17
2023-02-16T17:14:35.367Z,12.37
2023-02-16T17:18:21.563Z,8.67
2023-02-16T17:22:07.666Z,8.93
2023-02-16T17:25:50.744Z,8.27
2023-02-16T17:29:33.485Z,9.20
2023-02-16T17:33:16.199Z,8.87
2023-02-16T17:37:02.896Z,9.47
2023-02-16T17:40:47.819Z,8.23
2023-02-16T17:44:30.518Z,15.30
2023-02-16T17:48:16.928Z,12.57
2023-02-16T17:52:00.989Z,14.93
2023-02-16T17:55:44.110Z,11.93
2023-02-16T17:59:29.224Z,9.73
2023-02-16T18:03:12.565Z,11.70
2023-02-16T18:06:55.200Z,7.97
2023-02-16T18:10:41.882Z,10.50
2023-02-16T18:14:24.593Z,11.83
2023-02-16T18:18:07.949Z,9.83
2023-02-16T18:21:50.647Z,12.33
2023-02-16T18:25:33.399Z,11.03
2023-02-16T18:29:17.888Z,10.83
2023-02-16T18:33:00.545Z,12.67
2023-02-16T18:36:43.326Z,10.30
2023-02-16T18:40:26.152Z,10.07
2023-02-16T18:44:08.868Z,9.17
2023-02-16T18:47:55.936Z,16.50
2023-02-16T18:51:38.584Z,14.23
2023-02-16T18:55:21.310Z,14.63
2023-02-16T18:59:04.170Z,11.13
2023-02-16T19:02:46.851Z,12.83
2023-02-16T19:06:30.890Z,15.07
2023-02-16T19:10:13.643Z,9.63
2023-02-16T19:13:56.290Z,9.83
2023-02-16T19:17:39.532Z,13.27
2023-02-16T19:21:22.338Z,11.97
2023-02-16T19:25:07.390Z,9.47
2023-02-16T19:28:50.060Z,11.30
2023-02-16T19:32:32.785Z,11.23
2023-02-16T19:36:16.189Z,13.67
2023-02-16T19:39:58.914Z,12.00
2023-02-16T19:43:43.408Z,15.30
2023-02-16T19:47:26.071Z,12.40
2023-02-16T19:51:09.975Z,12.67
2023-02-16T19:54:52.694Z,13.30
2023-02-16T19:58:35.731Z,11.47
2023-02-16T20:02:19.863Z,12.67
2023-02-16T20:06:13.385Z,13.43
2023-02-16T20:09:56.118Z,12.57
2023-02-16T20:13:38.974Z,10.23
2023-02-16T20:17:23.080Z,13.80
2023-02-16T20:21:08.607Z,9.67
2023-02-16T20:24:53.671Z,10.20
2023-02-16T20:28:36.948Z,12.97
2023-02-16T20:32:19.786Z,10.70
2023-02-16T20:36:04.399Z,11.37
2023-02-16T20:39:54.814Z,10.80
2023-02-16T20:43:38.036Z,11.70
2023-02-16T20:47:20.747Z,11.13
2023-02-16T20:51:07.123Z,9.50
2023-02-16T20:54:49.838Z,9.57
2023-02-16T20:58:32.597Z,10.83
2023-02-16T21:02:15.293Z,9.67
2023-02-16T21:05:57.949Z,10.37
2023-02-16T21:09:42.504Z,7.40
2023-02-16T21:13:25.285Z,8.27
2023-02-16T21:17:07.973Z,9.90
2023-02-16T21:20:51.287Z,9.97
2023-02-16T21:24:34.048Z,10.17
2023-02-16T21:28:18.177Z,10.00
2023-02-16T21:32:00.960Z,8.70
2023-02-16T21:35:43.652Z,9.30
2023-02-16T21:39:46.291Z,9.23
2023-02-16T21:43:30.332Z,10.37
2023-02-16T21:47:31.421Z,9.33
2023-02-16T21:51:14.896Z,11.43
2023-02-16T21:55:15.085Z,8.00
2023-02-16T21:58:59.471Z,11.17
2023-02-16T22:02:42.176Z,8.80
2023-02-16T22:06:25.639Z,8.43
2023-02-16T22:10:09.788Z,6.63
2023-02-16T22:13:55.335Z,9.83
2023-02-16T22:17:39.427Z,9.87
2023-02-16T22:21:22.062Z,9.30
2023-02-16T22:25:04.993Z,8.90
2023-02-16T22:28:47.689Z,8.87
2023-02-16T22:32:30.418Z,8.00
2023-02-16T22:36:15.791Z,10.23
2023-02-16T22:39:58.440Z,7.33
2023-02-16T22:43:41.621Z,8.07
2023-02-16T22:47:24.225Z,8.50
2023-02-16T22:51:08.770Z,9.10
2023-02-16T22:54:52.806Z,7.27
2023-02-16T22:58:35.584Z,11.07
2023-02-16T23:02:18.283Z,11.83
2023-02-16T23:06:01.199Z,9.43
2023-02-16T23:09:43.905Z,10.00
2023-02-16T23:13:28.665Z,9.57
2023-02-16T23:17:11.329Z,8.80
2023-02-16T23:20:54.350Z,9.20
2023-02-16T23:24:37.183Z,9.00
2023-02-16T23:28:19.856Z,9.53
2023-02-16T23:32:05.550Z,10.07
2023-02-16T23:35:48.507Z,10.17
2023-02-16T23:39:31.190Z,10.73
2023-02-16T23:43:14.098Z,10.13
2023-02-16T23:46:56.773Z,10.30
2023-02-16T23:50:40.844Z,8.50
2023-02-16T23:54:23.536Z,8.10
2023-02-16T23:58:06.199Z,8.90
